Time;durP1;ratioP1;P1;durP2;ratioP2;P2;SDS_P1;SDS_P2;PMS_P1;PMS_P2;Temp;Humidity;BMP_temperature;BMP_pressure;BME280_temperature;BME280_humidity;BME280_pressure;Samples;Min_cycle;Max_cycle;Signal;HPM_P1;HPM_P2
2022/04/23 00:00:56;;;;;;;23.83;7.93;;;;;;;;;;4877659;29;20495;-73
2022/04/23 00:03:24;;;;;;;14.73;7.20;;;;;;;;;;4876467;29;20444;-73
2022/04/23 00:05:51;;;;;;;15.13;7.63;;;;;;;;;;4879463;29;20858;-73
2022/04/23 00:08:17;;;;;;;12.87;6.90;;;;;;;;;;4894265;29;20559;-73
2022/04/23 00:10:44;;;;;;;14.23;6.57;;;;;;;;;;4895511;29;20455;-73
2022/04/23 00:13:28;;;;;;;11.10;6.90;;;;;;;;;;4876998;29;20448;-73
2022/04/23 00:15:55;;;;;;;11.77;6.33;;;;;;;;;;4877600;29;21007;-73
2022/04/23 00:18:39;;;;;;;12.10;6.47;;;;;;;;;;4877822;29;20512;-73
2022/04/23 00:21:06;;;;;;;10.57;6.03;;;;;;;;;;4876438;29;20437;-73
2022/04/23 00:23:50;;;;;;;13.70;6.57;;;;;;;;;;4876947;29;20419;-73
2022/04/23 00:26:17;;;;;;;15.47;5.77;;;;;;;;;;4898407;29;20433;-73
2022/04/23 00:29:01;;;;;;;16.43;5.17;;;;;;;;;;4900545;29;20558;-73
2022/04/23 00:31:28;;;;;;;16.77;5.83;;;;;;;;;;4871844;29;20532;-72
2022/04/23 00:34:12;;;;;;;15.13;5.80;;;;;;;;;;4892222;29;20484;-75
2022/04/23 00:36:39;;;;;;;11.40;5.60;;;;;;;;;;4895560;29;20488;-75
2022/04/23 00:39:23;;;;;;;15.27;5.57;;;;;;;;;;4897751;29;20581;-75
2022/04/23 00:41:52;;;;;;;12.83;5.60;;;;;;;;;;4916832;29;20516;-75
2022/04/23 00:44:19;;;;;;;8.27;4.77;;;;;;;;;;4918430;29;20442;-75
2022/04/23 00:46:45;;;;;;;11.83;5.10;;;;;;;;;;4900971;29;20504;-75
2022/04/23 00:49:13;;;;;;;9.23;5.20;;;;;;;;;;4899260;29;20448;-74
2022/04/23 00:51:40;;;;;;;10.13;5.40;;;;;;;;;;4898153;29;20461;-74
2022/04/23 00:54:07;;;;;;;10.33;4.80;;;;;;;;;;4898285;29;20448;-73
2022/04/23 00:56:35;;;;;;;9.43;4.87;;;;;;;;;;4897072;29;20521;-75
2022/04/23 00:59:19;;;;;;;11.43;5.10;;;;;;;;;;4899442;29;20506;-75
2022/04/23 01:01:46;;;;;;;13.37;5.20;;;;;;;;;;4899227;29;20528;-74
2022/04/23 01:04:30;;;;;;;10.47;5.70;;;;;;;;;;4893802;29;20761;-75
2022/04/23 01:06:57;;;;;;;9.77;4.70;;;;;;;;;;4880283;29;20499;-75
2022/04/23 01:09:44;;;;;;;8.77;5.10;;;;;;;;;;4880354;29;20508;-75
2022/04/23 01:12:11;;;;;;;9.20;4.80;;;;;;;;;;4863645;29;20932;-75
2022/04/23 01:14:57;;;;;;;6.40;4.40;;;;;;;;;;4879181;29;20881;-75
2022/04/23 01:17:24;;;;;;;6.20;4.20;;;;;;;;;;4891016;29;20463;-75
2022/04/23 01:20:08;;;;;;;7.03;4.47;;;;;;;;;;4897973;29;20508;-73
2022/04/23 01:22:38;;;;;;;10.13;4.63;;;;;;;;;;4885128;29;20441;-73
2022/04/23 01:25:23;;;;;;;9.13;4.80;;;;;;;;;;4903569;29;20428;-75
2022/04/23 01:27:50;;;;;;;7.90;5.00;;;;;;;;;;4917642;29;20866;-75
2022/04/23 01:30:17;;;;;;;6.77;4.50;;;;;;;;;;4901151;29;20447;-75
2022/04/23 01:32:44;;;;;;;9.23;5.23;;;;;;;;;;4917623;29;20472;-75
2022/04/23 01:35:11;;;;;;;8.13;4.90;;;;;;;;;;4917431;29;20471;-75
2022/04/23 01:37:39;;;;;;;7.23;4.80;;;;;;;;;;4917590;29;20822;-75
2022/04/23 01:40:07;;;;;;;9.83;5.27;;;;;;;;;;4891418;29;20841;-75
2022/04/23 01:42:34;;;;;;;12.63;6.33;;;;;;;;;;4898112;29;20468;-75
2022/04/23 01:45:18;;;;;;;9.77;5.60;;;;;;;;;;4898501;29;20955;-75
2022/04/23 01:47:45;;;;;;;9.73;5.50;;;;;;;;;;4898316;29;20464;-75
2022/04/23 01:50:29;;;;;;;11.33;5.40;;;;;;;;;;4897501;29;20431;-74
2022/04/23 01:52:56;;;;;;;10.00;5.27;;;;;;;;;;4897518;29;20575;-75
2022/04/23 01:55:23;;;;;;;8.90;4.77;;;;;;;;;;4893038;29;20437;-75
2022/04/23 01:57:50;;;;;;;10.77;4.87;;;;;;;;;;4897294;29;21056;-75
2022/04/23 02:00:17;;;;;;;6.53;4.40;;;;;;;;;;4881470;29;20540;-75
2022/04/23 02:02:44;;;;;;;8.23;5.13;;;;;;;;;;4897898;29;20492;-72
2022/04/23 02:05:11;;;;;;;8.30;4.57;;;;;;;;;;4897080;29;20432;-73
2022/04/23 02:07:38;;;;;;;9.67;5.13;;;;;;;;;;4897887;29;20523;-75
2022/04/23 02:10:22;;;;;;;8.60;4.33;;;;;;;;;;4898093;29;20425;-75
2022/04/23 02:12:49;;;;;;;7.47;4.70;;;;;;;;;;4889974;29;20571;-75
2022/04/23 02:15:16;;;;;;;7.77;4.37;;;;;;;;;;4862817;29;20458;-75
2022/04/23 02:17:43;;;;;;;11.47;4.63;;;;;;;;;;4880274;29;20483;-73
2022/04/23 02:20:11;;;;;;;7.93;4.50;;;;;;;;;;4897867;29;20454;-76
2022/04/23 02:22:38;;;;;;;8.20;4.50;;;;;;;;;;4896682;29;20444;-73
2022/04/23 02:25:05;;;;;;;8.10;4.37;;;;;;;;;;4906555;29;20439;-73
2022/04/23 02:27:48;;;;;;;6.07;4.30;;;;;;;;;;4899914;29;20947;-73
2022/04/23 02:30:32;;;;;;;6.93;4.00;;;;;;;;;;4888802;29;20817;-73
2022/04/23 02:32:59;;;;;;;7.50;4.27;;;;;;;;;;4877671;29;20486;-73
2022/04/23 02:35:26;;;;;;;8.53;4.67;;;;;;;;;;4877861;29;20950;-73
2022/04/23 02:38:01;;;;;;;5.47;3.80;;;;;;;;;;4877124;29;20464;-73
2022/04/23 02:40:45;;;;;;;7.50;4.50;;;;;;;;;;4908294;29;20432;-73
2022/04/23 02:43:12;;;;;;;8.20;3.97;;;;;;;;;;4916604;29;20518;-73
2022/04/23 02:45:39;;;;;;;8.00;4.23;;;;;;;;;;4916536;29;20450;-73
2022/04/23 02:48:06;;;;;;;6.93;4.20;;;;;;;;;;4879494;29;20532;-73
2022/04/23 02:50:37;;;;;;;6.60;4.17;;;;;;;;;;4877521;29;20467;-73
2022/04/23 02:53:06;;;;;;;9.70;4.63;;;;;;;;;;4878447;29;20485;-73
2022/04/23 02:55:33;;;;;;;7.73;4.20;;;;;;;;;;4877175;29;20445;-73
2022/04/23 02:58:04;;;;;;;6.87;4.30;;;;;;;;;;4877499;29;20438;-73
2022/04/23 03:00:31;;;;;;;7.17;4.20;;;;;;;;;;4878659;29;20537;-73
2022/04/23 03:02:59;;;;;;;7.63;4.50;;;;;;;;;;4877817;29;20958;-74
2022/04/23 03:05:26;;;;;;;7.57;3.97;;;;;;;;;;4878469;29;20441;-73
2022/04/23 03:07:53;;;;;;;7.27;4.57;;;;;;;;;;4877025;29;20439;-73
2022/04/23 03:10:20;;;;;;;6.33;4.00;;;;;;;;;;4878528;29;20430;-73
2022/04/23 03:12:47;;;;;;;6.83;4.10;;;;;;;;;;4885013;29;20553;-73
2022/04/23 03:15:31;;;;;;;18.03;4.33;;;;;;;;;;4895800;29;20421;-73
2022/04/23 03:18:04;;;;;;;29.40;5.47;;;;;;;;;;4880509;29;20475;-73
2022/04/23 03:20:49;;;;;;;19.60;4.77;;;;;;;;;;4889051;29;20492;-74
2022/04/23 03:23:15;;;;;;;16.23;4.93;;;;;;;;;;4877334;29;21123;-74
2022/04/23 03:25:42;;;;;;;9.40;4.63;;;;;;;;;;4908040;29;20441;-73
2022/04/23 03:28:13;;;;;;;11.37;5.07;;;;;;;;;;4915808;29;20533;-74
2022/04/23 03:30:40;;;;;;;10.03;4.43;;;;;;;;;;4862311;29;20454;-74
2022/04/23 03:33:25;;;;;;;9.50;4.83;;;;;;;;;;4878170;29;20483;-74
2022/04/23 03:35:51;;;;;;;11.07;5.57;;;;;;;;;;4877196;29;20437;-74
2022/04/23 03:38:18;;;;;;;8.23;4.60;;;;;;;;;;4862405;29;20457;-76
2022/04/23 03:40:48;;;;;;;6.30;4.47;;;;;;;;;;4888002;29;20427;-74
2022/04/23 03:43:15;;;;;;;5.87;3.93;;;;;;;;;;4915786;29;20919;-74
2022/04/23 03:45:59;;;;;;;7.30;4.60;;;;;;;;;;4915788;29;20937;-74
2022/04/23 03:48:26;;;;;;;10.53;4.73;;;;;;;;;;4915770;29;20787;-74
2022/04/23 03:51:10;;;;;;;6.47;4.17;;;;;;;;;;4901604;29;20497;-74
2022/04/23 03:53:37;;;;;;;7.53;4.43;;;;;;;;;;4876039;29;21178;-73
2022/04/23 03:56:21;;;;;;;7.73;4.30;;;;;;;;;;4876899;29;20437;-74
2022/04/23 03:58:48;;;;;;;8.33;4.63;;;;;;;;;;4877079;29;20732;-73
2022/04/23 04:01:15;;;;;;;9.13;5.07;;;;;;;;;;4877019;29;20509;-74
2022/04/23 04:03:43;;;;;;;7.77;4.93;;;;;;;;;;4877931;29;20438;-73
2022/04/23 04:06:10;;;;;;;9.03;5.07;;;;;;;;;;4878192;29;20478;-73
2022/04/23 04:08:37;;;;;;;9.13;5.27;;;;;;;;;;4876870;29;20465;-73
2022/04/23 04:11:04;;;;;;;9.23;5.30;;;;;;;;;;4877510;29;20532;-74
2022/04/23 04:13:31;;;;;;;8.87;5.10;;;;;;;;;;4861650;29;20859;-73
2022/04/23 04:15:58;;;;;;;8.50;4.50;;;;;;;;;;4896398;29;20792;-74
2022/04/23 04:18:25;;;;;;;14.27;4.60;;;;;;;;;;4899016;29;20762;-73
2022/04/23 04:20:53;;;;;;;8.17;4.67;;;;;;;;;;4900242;29;20443;-73
2022/04/23 04:23:38;;;;;;;11.47;4.83;;;;;;;;;;4898768;29;20520;-74
2022/04/23 04:26:05;;;;;;;8.43;4.50;;;;;;;;;;4917962;29;20434;-74
2022/04/23 04:28:32;;;;;;;7.00;4.30;;;;;;;;;;4880729;29;21014;-73
2022/04/23 04:33:44;;;;;;;6.07;4.17;;;;;;;;;;4899570;29;20243;-73
2022/04/23 04:36:11;;;;;;;9.70;4.30;;;;;;;;;;4899075;29;20192;-73
2022/04/23 04:38:38;;;;;;;5.93;4.20;;;;;;;;;;4900004;29;20264;-73
2022/04/23 04:41:05;;;;;;;6.47;4.30;;;;;;;;;;4915710;29;20279;-73
2022/04/23 04:43:31;;;;;;;9.03;4.33;;;;;;;;;;4918530;29;20200;-73
2022/04/23 04:45:59;;;;;;;10.33;4.47;;;;;;;;;;4898403;29;20280;-73
2022/04/23 04:48:43;;;;;;;6.67;4.43;;;;;;;;;;4881086;29;20177;-73
2022/04/23 04:51:10;;;;;;;8.00;4.10;;;;;;;;;;4881214;29;20188;-74
2022/04/23 04:53:54;;;;;;;6.53;4.27;;;;;;;;;;4880779;29;20242;-74
2022/04/23 04:56:21;;;;;;;8.30;4.77;;;;;;;;;;4879317;29;20598;-74
2022/04/23 04:58:50;;;;;;;7.17;4.60;;;;;;;;;;4899120;29;20254;-74
2022/04/23 05:01:17;;;;;;;9.07;4.50;;;;;;;;;;4883122;29;20311;-74
2022/04/23 05:03:44;;;;;;;10.17;4.73;;;;;;;;;;4867742;29;20657;-74
2022/04/23 05:06:12;;;;;;;6.67;4.40;;;;;;;;;;4863985;29;20241;-74
2022/04/23 05:08:39;;;;;;;7.57;4.67;;;;;;;;;;4880522;29;20208;-73
2022/04/23 05:11:06;;;;;;;6.23;4.27;;;;;;;;;;4880500;29;20239;-74
2022/04/23 05:13:33;;;;;;;5.67;4.23;;;;;;;;;;4863668;29;20728;-74
2022/04/23 05:16:00;;;;;;;6.20;4.70;;;;;;;;;;4872778;29;20666;-74
2022/04/23 05:18:27;;;;;;;7.70;4.20;;;;;;;;;;4879492;29;20199;-74
2022/04/23 05:20:54;;;;;;;6.80;5.10;;;;;;;;;;4880996;29;20193;-74
2022/04/23 05:23:21;;;;;;;17.47;5.17;;;;;;;;;;4879082;29;20271;-75
2022/04/23 05:25:48;;;;;;;13.67;5.23;;;;;;;;;;4911522;29;20174;-75
2022/04/23 05:28:32;;;;;;;7.00;4.47;;;;;;;;;;4915626;29;20171;-74
2022/04/23 05:30:59;;;;;;;7.77;4.50;;;;;;;;;;4901150;29;20775;-75
2022/04/23 05:33:27;;;;;;;8.07;4.70;;;;;;;;;;4906625;29;20225;-74
2022/04/23 05:35:54;;;;;;;8.10;5.40;;;;;;;;;;4897452;29;20218;-72
2022/04/23 05:38:21;;;;;;;7.87;4.70;;;;;;;;;;4881807;29;20195;-74
2022/04/23 05:40:48;;;;;;;6.43;4.50;;;;;;;;;;4911266;29;20184;-73
2022/04/23 05:43:16;;;;;;;9.17;5.17;;;;;;;;;;4917392;29;20396;-75
2022/04/23 05:45:43;;;;;;;10.53;4.70;;;;;;;;;;4917582;29;20263;-74
2022/04/23 05:48:13;;;;;;;9.63;4.50;;;;;;;;;;4900794;29;20199;-76
2022/04/23 05:50:40;;;;;;;6.30;4.60;;;;;;;;;;4907769;29;20184;-73
2022/04/23 05:53:07;;;;;;;6.83;4.20;;;;;;;;;;4894480;29;20771;-73
2022/04/23 05:55:51;;;;;;;6.27;4.30;;;;;;;;;;4878577;29;20175;-73
2022/04/23 05:58:18;;;;;;;5.93;4.07;;;;;;;;;;4887811;29;20195;-74
2022/04/23 06:00:45;;;;;;;9.07;4.27;;;;;;;;;;4895452;29;20279;-76
2022/04/23 06:03:12;;;;;;;8.57;4.97;;;;;;;;;;4881610;29;20560;-76
2022/04/23 06:05:39;;;;;;;7.20;4.27;;;;;;;;;;4880467;29;20208;-77
2022/04/23 06:08:23;;;;;;;8.07;4.80;;;;;;;;;;4888202;29;20193;-74
2022/04/23 06:10:50;;;;;;;11.97;5.20;;;;;;;;;;4889891;29;20232;-74
2022/04/23 06:13:17;;;;;;;9.80;4.67;;;;;;;;;;4879670;29;20209;-75
2022/04/23 06:15:46;;;;;;;12.03;4.83;;;;;;;;;;4897855;29;20212;-75
2022/04/23 06:18:13;;;;;;;10.20;4.90;;;;;;;;;;4912140;29;20666;-73
2022/04/23 06:20:57;;;;;;;11.57;5.13;;;;;;;;;;4898260;29;20254;-74
2022/04/23 06:23:25;;;;;;;8.27;4.93;;;;;;;;;;4894403;29;20243;-74
2022/04/23 06:26:10;;;;;;;11.70;4.27;;;;;;;;;;4894743;29;20188;-75
2022/04/23 06:28:36;;;;;;;11.47;5.10;;;;;;;;;;4885779;29;20308;-75
2022/04/23 06:31:22;;;;;;;14.03;5.60;;;;;;;;;;4886298;29;20275;-74
2022/04/23 06:33:51;;;;;;;9.10;4.80;;;;;;;;;;4891417;29;20240;-75
2022/04/23 06:36:18;;;;;;;18.50;5.47;;;;;;;;;;4889184;29;20192;-75
2022/04/23 06:38:45;;;;;;;17.47;5.23;;;;;;;;;;4878872;29;20204;-75
2022/04/23 06:41:19;;;;;;;11.80;4.20;;;;;;;;;;4897966;29;20198;-76
2022/04/23 06:43:45;;;;;;;11.60;4.90;;;;;;;;;;4884220;29;20192;-73
2022/04/23 06:46:12;;;;;;;9.60;4.37;;;;;;;;;;4897557;29;20197;-75
2022/04/23 06:48:39;;;;;;;13.73;4.17;;;;;;;;;;4880508;29;20220;-75
2022/04/23 06:51:06;;;;;;;7.93;4.00;;;;;;;;;;4899762;29;20224;-74
2022/04/23 06:53:33;;;;;;;6.27;3.60;;;;;;;;;;4878947;29;20311;-75
2022/04/23 06:56:01;;;;;;;4.57;3.20;;;;;;;;;;4896381;29;20227;-74
2022/04/23 06:58:46;;;;;;;7.07;3.53;;;;;;;;;;4880316;29;20187;-75
2022/04/23 07:01:13;;;;;;;6.70;3.17;;;;;;;;;;4879311;29;20675;-75
2022/04/23 07:03:40;;;;;;;7.33;3.53;;;;;;;;;;4893635;29;20204;-74
2022/04/23 07:06:07;;;;;;;5.50;3.00;;;;;;;;;;4895296;29;20200;-74
2022/04/23 07:08:34;;;;;;;8.63;3.50;;;;;;;;;;4883958;29;20197;-74
2022/04/23 07:11:01;;;;;;;3.87;2.97;;;;;;;;;;4878518;29;20181;-74
2022/04/23 07:13:28;;;;;;;6.63;3.20;;;;;;;;;;4889325;29;20209;-74
2022/04/23 07:15:55;;;;;;;6.17;3.80;;;;;;;;;;4899156;29;20554;-72
2022/04/23 07:18:22;;;;;;;14.00;3.60;;;;;;;;;;4883273;29;20703;-72
2022/04/23 07:20:49;;;;;;;8.83;3.50;;;;;;;;;;4896889;29;20203;-72
2022/04/23 07:26:19;;;;;;;5.50;3.47;;;;;;;;;;4884222;29;20183;-74
2022/04/23 07:28:46;;;;;;;5.23;2.93;;;;;;;;;;4875855;29;20230;-73
2022/04/23 07:31:30;;;;;;;3.97;3.13;;;;;;;;;;4896996;29;20188;-75
2022/04/23 07:39:28;;;;;;;4.57;3.07;;;;;;;;;;4888605;29;20195;-72
2022/04/23 07:41:55;;;;;;;4.93;3.23;;;;;;;;;;4897265;29;20259;-72
2022/04/23 07:44:22;;;;;;;6.70;3.10;;;;;;;;;;4884374;29;20291;-74
2022/04/23 07:46:49;;;;;;;13.33;3.87;;;;;;;;;;4895656;29;20220;-73
2022/04/23 07:49:16;;;;;;;5.80;3.47;;;;;;;;;;4900542;29;20727;-72
2022/04/23 07:51:43;;;;;;;4.73;3.40;;;;;;;;;;4899492;29;20253;-72
2022/04/23 07:54:10;;;;;;;8.27;3.20;;;;;;;;;;4898179;29;20315;-72
2022/04/23 07:56:38;;;;;;;6.83;3.37;;;;;;;;;;4895158;29;20199;-74
2022/04/23 07:59:05;;;;;;;11.43;4.07;;;;;;;;;;4893787;29;20228;-72
2022/04/23 08:01:31;;;;;;;7.23;3.20;;;;;;;;;;4898880;29;20248;-73
2022/04/23 08:04:02;;;;;;;8.93;3.33;;;;;;;;;;4899368;29;20287;-72
2022/04/23 08:06:30;;;;;;;5.87;3.40;;;;;;;;;;4898342;29;20212;-71
2022/04/23 08:08:57;;;;;;;4.57;3.40;;;;;;;;;;4883068;29;20228;-72
2022/04/23 08:11:24;;;;;;;7.73;3.57;;;;;;;;;;4893438;29;20196;-73
2022/04/23 08:13:51;;;;;;;9.77;3.60;;;;;;;;;;4896715;29;20235;-72
2022/04/23 08:16:18;;;;;;;5.23;3.40;;;;;;;;;;4868775;29;20650;-71
2022/04/23 08:18:46;;;;;;;12.13;4.13;;;;;;;;;;4898084;29;20200;-71
2022/04/23 08:21:14;;;;;;;11.60;3.30;;;;;;;;;;4899322;29;20243;-72
2022/04/23 08:23:41;;;;;;;4.77;3.17;;;;;;;;;;4899715;29;20550;-71
2022/04/23 08:26:25;;;;;;;5.60;3.37;;;;;;;;;;4898434;29;20664;-72
2022/04/23 08:31:37;;;;;;;5.07;3.80;;;;;;;;;;4895317;29;20216;-71
2022/04/23 08:34:04;;;;;;;5.70;3.60;;;;;;;;;;4898131;29;20239;-73
2022/04/23 08:36:36;;;;;;;5.90;3.70;;;;;;;;;;4899465;29;20657;-71
2022/04/23 08:39:06;;;;;;;6.63;3.97;;;;;;;;;;4897989;29;20240;-72
2022/04/23 08:41:34;;;;;;;10.27;4.33;;;;;;;;;;4863452;29;20697;-70
2022/04/23 08:44:07;;;;;;;6.60;4.13;;;;;;;;;;4894648;29;20287;-73
2022/04/23 08:46:52;;;;;;;5.90;3.73;;;;;;;;;;4880843;29;20582;-72
2022/04/23 08:49:19;;;;;;;8.00;4.17;;;;;;;;;;4888083;29;20272;-72
2022/04/23 08:51:55;;;;;;;6.53;4.10;;;;;;;;;;4908798;29;20194;-71
2022/04/23 08:54:22;;;;;;;7.97;4.47;;;;;;;;;;4882731;29;20738;-70
2022/04/23 08:56:49;;;;;;;6.20;4.07;;;;;;;;;;4884585;29;20545;-70
2022/04/23 08:59:16;;;;;;;6.07;3.80;;;;;;;;;;4885802;29;20207;-70
2022/04/23 09:01:48;;;;;;;5.63;3.83;;;;;;;;;;4897051;29;20537;-72
2022/04/23 09:04:15;;;;;;;4.53;3.73;;;;;;;;;;4880664;29;20208;-73
2022/04/23 09:06:46;;;;;;;7.50;3.80;;;;;;;;;;4909642;29;20198;-72
2022/04/23 09:09:13;;;;;;;9.90;4.10;;;;;;;;;;4881962;29;20679;-74
2022/04/23 09:11:44;;;;;;;10.40;4.27;;;;;;;;;;4867276;29;20782;-74
2022/04/23 09:14:22;;;;;;;4.77;3.60;;;;;;;;;;4867487;29;20217;-76
2022/04/23 09:25:10;;;;;;;6.33;3.10;;;;;;;;;;4896706;29;20192;-69
2022/04/23 09:27:37;;;;;;;4.30;3.00;;;;;;;;;;4882383;29;20678;-70
2022/04/23 09:30:05;;;;;;;3.60;2.80;;;;;;;;;;4906576;29;20207;-68
2022/04/23 09:32:32;;;;;;;5.90;3.10;;;;;;;;;;4881902;29;20390;-68
2022/04/23 09:35:09;;;;;;;4.93;2.90;;;;;;;;;;4916175;29;20798;-70
2022/04/23 09:40:41;;;;;;;7.20;3.10;;;;;;;;;;4906279;29;20783;-71
2022/04/23 09:43:09;;;;;;;7.67;3.33;;;;;;;;;;4900862;29;20224;-71
2022/04/23 09:45:59;;;;;;;3.20;2.70;;;;;;;;;;4895176;29;20192;-71
2022/04/23 09:48:31;;;;;;;4.47;3.80;;;;;;;;;;4878714;29;20200;-71
2022/04/23 09:50:58;;;;;;;6.53;3.60;;;;;;;;;;4895188;29;20211;-69
2022/04/23 09:53:27;;;;;;;4.30;3.00;;;;;;;;;;4898328;29;20299;-68
2022/04/23 09:56:04;;;;;;;4.97;3.20;;;;;;;;;;4898465;29;20248;-68
2022/04/23 09:58:48;;;;;;;4.87;2.97;;;;;;;;;;4895892;29;20187;-70
2022/04/23 10:01:14;;;;;;;5.43;2.70;;;;;;;;;;4872375;29;20747;-69
2022/04/23 10:03:46;;;;;;;11.90;3.37;;;;;;;;;;4894008;29;20196;-69
2022/04/23 10:06:14;;;;;;;4.20;2.67;;;;;;;;;;4901791;29;20201;-69
2022/04/23 10:09:02;;;;;;;4.20;2.80;;;;;;;;;;4887489;29;20195;-70
2022/04/23 10:11:29;;;;;;;10.17;3.27;;;;;;;;;;4877930;29;20196;-72
2022/04/23 10:14:01;;;;;;;5.30;2.57;;;;;;;;;;4887423;29;20220;-70
2022/04/23 10:16:30;;;;;;;4.20;2.33;;;;;;;;;;4892854;29;20212;-68
2022/04/23 10:18:57;;;;;;;3.60;2.50;;;;;;;;;;4884044;29;20193;-68
2022/04/23 10:21:30;;;;;;;5.13;2.87;;;;;;;;;;4894858;29;20184;-70
2022/04/23 10:24:18;;;;;;;7.60;2.70;;;;;;;;;;4892811;29;20200;-69
2022/04/23 10:26:45;;;;;;;5.73;2.50;;;;;;;;;;4893929;29;20283;-70
2022/04/23 10:29:14;;;;;;;6.27;2.80;;;;;;;;;;4893629;29;20728;-68
2022/04/23 10:31:41;;;;;;;4.70;2.80;;;;;;;;;;4878755;29;20201;-69
2022/04/23 10:34:27;;;;;;;5.13;2.70;;;;;;;;;;4891161;29;20243;-70
2022/04/23 10:37:13;;;;;;;5.33;2.93;;;;;;;;;;4896451;29;20197;-69
2022/04/23 10:39:42;;;;;;;9.53;3.37;;;;;;;;;;4889546;29;20564;-69
2022/04/23 10:42:13;;;;;;;12.13;3.10;;;;;;;;;;4881029;29;20267;-70
2022/04/23 10:44:42;;;;;;;6.53;2.60;;;;;;;;;;4888602;29;20566;-70
2022/04/23 10:47:13;;;;;;;4.10;3.03;;;;;;;;;;4891851;29;20208;-69
2022/04/23 10:49:40;;;;;;;5.57;2.90;;;;;;;;;;4891309;29;20255;-70
2022/04/23 10:52:07;;;;;;;16.27;3.80;;;;;;;;;;4896410;29;20276;-71
2022/04/23 10:54:40;;;;;;;5.33;3.00;;;;;;;;;;4895696;29;20591;-67
2022/04/23 10:57:07;;;;;;;11.60;3.10;;;;;;;;;;4896131;29;20192;-68
2022/04/23 10:59:43;;;;;;;7.33;2.60;;;;;;;;;;4895919;29;20206;-67
2022/04/23 11:02:29;;;;;;;5.73;2.47;;;;;;;;;;4882539;29;20223;-67
2022/04/23 11:13:50;;;;;;;3.07;2.20;;;;;;;;;;4892185;29;20303;-67
2022/04/23 11:16:17;;;;;;;6.57;2.43;;;;;;;;;;4892549;29;20188;-67
2022/04/23 11:18:45;;;;;;;4.07;2.13;;;;;;;;;;4896705;29;20196;-67
2022/04/23 11:21:23;;;;;;;8.17;2.63;;;;;;;;;;4897041;29;20202;-67
2022/04/23 11:23:50;;;;;;;2.90;2.27;;;;;;;;;;4896203;29;20551;-67
2022/04/23 11:26:18;;;;;;;6.83;2.60;;;;;;;;;;4891465;29;20189;-67
2022/04/23 11:28:45;;;;;;;6.60;3.00;;;;;;;;;;4907721;29;20227;-69
2022/04/23 11:31:13;;;;;;;2.73;2.30;;;;;;;;;;4911071;29;20196;-66
2022/04/23 11:33:50;;;;;;;3.83;2.37;;;;;;;;;;4910667;29;20227;-67
2022/04/23 11:36:17;;;;;;;4.77;2.30;;;;;;;;;;4901239;29;20203;-67
2022/04/23 11:39:09;;;;;;;5.47;2.40;;;;;;;;;;4896179;29;20666;-67
2022/04/23 11:41:36;;;;;;;9.10;3.10;;;;;;;;;;4877987;29;20204;-67
2022/04/23 11:44:12;;;;;;;5.80;3.10;;;;;;;;;;4877569;29;20618;-67
2022/04/23 11:46:42;;;;;;;5.80;2.97;;;;;;;;;;4888667;29;20204;-67
2022/04/23 11:49:22;;;;;;;4.80;2.70;;;;;;;;;;4896319;29;20262;-69
2022/04/23 11:51:49;;;;;;;4.40;2.80;;;;;;;;;;4896845;29;20282;-67
2022/04/23 11:54:16;;;;;;;4.03;2.43;;;;;;;;;;4892152;29;20374;-66
2022/04/23 11:56:44;;;;;;;6.17;2.30;;;;;;;;;;4896408;29;20188;-66
2022/04/23 11:59:12;;;;;;;5.53;2.80;;;;;;;;;;4887309;29;20314;-67
2022/04/23 12:01:43;;;;;;;6.60;2.70;;;;;;;;;;4866762;29;20224;-61
2022/04/23 12:04:10;;;;;;;5.53;2.33;;;;;;;;;;4894831;29;20283;-66
2022/04/23 12:06:41;;;;;;;3.90;2.93;;;;;;;;;;4896185;29;20272;-68
2022/04/23 12:09:08;;;;;;;4.87;2.27;;;;;;;;;;4895784;29;20227;-66
2022/04/23 12:11:35;;;;;;;4.40;2.33;;;;;;;;;;4896472;29;20275;-66
2022/04/23 12:14:05;;;;;;;5.50;2.90;;;;;;;;;;4896013;29;20224;-66
2022/04/23 12:16:32;;;;;;;4.33;2.20;;;;;;;;;;4896346;29;20229;-65
2022/04/23 12:19:05;;;;;;;4.40;2.37;;;;;;;;;;4895443;29;20205;-65
2022/04/23 12:21:32;;;;;;;4.00;2.60;;;;;;;;;;4891580;29;20192;-66
2022/04/23 12:23:59;;;;;;;4.93;2.60;;;;;;;;;;4894534;29;20185;-67
2022/04/23 12:26:33;;;;;;;5.33;2.57;;;;;;;;;;4886718;29;20193;-66
2022/04/23 12:43:17;;;;;;;4.70;2.93;;;;;;;;;;4911381;29;20684;-64
2022/04/23 12:45:44;;;;;;;5.57;2.60;;;;;;;;;;4904502;29;20263;-69
2022/04/23 12:48:12;;;;;;;4.23;2.80;;;;;;;;;;4899974;29;20193;-68
2022/04/23 12:50:39;;;;;;;3.97;2.13;;;;;;;;;;4898606;29;20195;-64
2022/04/23 12:53:33;;;;;;;3.70;2.80;;;;;;;;;;4898861;29;20181;-68
2022/04/23 12:56:03;;;;;;;4.37;3.43;;;;;;;;;;4899701;29;20216;-68
2022/04/23 12:58:31;;;;;;;15.60;3.60;;;;;;;;;;4897861;29;20203;-65
2022/04/23 13:00:58;;;;;;;5.20;3.40;;;;;;;;;;4898881;29;20223;-67
2022/04/23 13:03:37;;;;;;;15.83;4.00;;;;;;;;;;4908489;29;20228;-64
2022/04/23 13:09:09;;;;;;;6.10;3.87;;;;;;;;;;4899246;29;20224;-67
2022/04/23 13:11:36;;;;;;;3.97;3.33;;;;;;;;;;4899045;29;20306;-65
2022/04/23 13:14:05;;;;;;;6.10;3.13;;;;;;;;;;4911704;29;20191;-69
2022/04/23 13:16:32;;;;;;;7.30;3.47;;;;;;;;;;4913106;29;20180;-66
2022/04/23 13:19:00;;;;;;;9.40;3.10;;;;;;;;;;4898223;29;20228;-68
2022/04/23 13:21:27;;;;;;;7.17;2.93;;;;;;;;;;4897339;29;20188;-69
2022/04/23 13:23:54;;;;;;;6.83;2.83;;;;;;;;;;4899339;29;20196;-68
2022/04/23 13:26:21;;;;;;;7.03;2.90;;;;;;;;;;4898585;29;20232;-61
2022/04/23 13:28:48;;;;;;;4.37;2.20;;;;;;;;;;4904734;29;20672;-68
2022/04/23 13:31:15;;;;;;;8.23;2.70;;;;;;;;;;4896351;29;20281;-67
2022/04/23 13:33:42;;;;;;;10.00;2.40;;;;;;;;;;4900462;29;20223;-68
2022/04/23 13:36:09;;;;;;;5.10;2.60;;;;;;;;;;4912883;29;20725;-67
2022/04/23 13:38:36;;;;;;;9.53;3.37;;;;;;;;;;4898244;29;20559;-67
2022/04/23 13:41:04;;;;;;;8.47;2.83;;;;;;;;;;4900750;29;20235;-68
2022/04/23 13:43:31;;;;;;;10.47;3.10;;;;;;;;;;4895929;29;20208;-66
2022/04/23 13:45:58;;;;;;;12.53;2.87;;;;;;;;;;4896802;29;20203;-68
2022/04/23 13:48:26;;;;;;;5.47;2.90;;;;;;;;;;4897329;29;20200;-67
2022/04/23 13:50:56;;;;;;;5.83;2.83;;;;;;;;;;4897555;29;20660;-71
2022/04/23 13:53:23;;;;;;;3.43;2.50;;;;;;;;;;4905767;29;20656;-73
2022/04/23 13:55:49;;;;;;;12.00;2.70;;;;;;;;;;4905199;29;20302;-66
2022/04/23 13:58:16;;;;;;;35.93;5.23;;;;;;;;;;4896405;29;20200;-66
2022/04/23 14:00:43;;;;;;;5.87;3.23;;;;;;;;;;4898638;29;20230;-64
2022/04/23 14:11:45;;;;;;;6.40;3.40;;;;;;;;;;4898207;29;20196;-67
2022/04/23 14:14:13;;;;;;;5.93;2.77;;;;;;;;;;4896759;29;20195;-69
2022/04/23 14:16:43;;;;;;;6.17;3.20;;;;;;;;;;4895702;29;20283;-68
2022/04/23 14:19:10;;;;;;;4.60;3.40;;;;;;;;;;4896739;29;20275;-69
2022/04/23 14:21:38;;;;;;;6.03;3.90;;;;;;;;;;4898318;29;20295;-66
2022/04/23 14:24:05;;;;;;;7.50;3.60;;;;;;;;;;4897682;29;20227;-69
2022/04/23 14:26:32;;;;;;;7.17;3.60;;;;;;;;;;4895517;29;20203;-66
2022/04/23 14:28:59;;;;;;;4.07;3.30;;;;;;;;;;4896728;29;20203;-66
2022/04/23 14:31:28;;;;;;;5.93;3.80;;;;;;;;;;4898619;29;20196;-72
2022/04/23 14:33:56;;;;;;;41.13;5.73;;;;;;;;;;4891807;29;20817;-64
2022/04/23 14:36:23;;;;;;;5.27;3.20;;;;;;;;;;4879252;29;20231;-67
2022/04/23 14:38:51;;;;;;;5.43;3.10;;;;;;;;;;4890759;29;20346;-65
2022/04/23 14:41:18;;;;;;;9.00;3.23;;;;;;;;;;4914646;29;20551;-66
2022/04/23 14:43:45;;;;;;;8.63;3.60;;;;;;;;;;4916295;29;20195;-64
2022/04/23 14:46:11;;;;;;;5.63;3.37;;;;;;;;;;4916281;29;20279;-68
2022/04/23 14:48:38;;;;;;;4.33;2.80;;;;;;;;;;4901769;29;20252;-74
2022/04/23 14:54:00;;;;;;;3.87;3.10;;;;;;;;;;4897229;29;20192;-68
2022/04/23 14:56:28;;;;;;;8.10;3.10;;;;;;;;;;4885409;29;20228;-62
2022/04/23 14:58:55;;;;;;;5.80;3.40;;;;;;;;;;4878682;29;20203;-67
2022/04/23 15:01:22;;;;;;;21.63;3.90;;;;;;;;;;4890869;29;20203;-71
2022/04/23 15:03:50;;;;;;;5.23;3.07;;;;;;;;;;4880203;29;20197;-74
2022/04/23 15:06:18;;;;;;;14.00;3.00;;;;;;;;;;4870734;29;20193;-74
2022/04/23 15:08:45;;;;;;;4.40;3.00;;;;;;;;;;4894795;29;20215;-72
2022/04/23 15:11:14;;;;;;;5.43;2.70;;;;;;;;;;4892634;29;20188;-70
2022/04/23 15:13:41;;;;;;;5.17;2.60;;;;;;;;;;4898287;29;20219;-72
2022/04/23 15:16:09;;;;;;;3.43;2.20;;;;;;;;;;4907546;29;20557;-73
2022/04/23 15:18:36;;;;;;;7.30;2.60;;;;;;;;;;4899536;29;20220;-75
2022/04/23 15:21:03;;;;;;;3.80;2.40;;;;;;;;;;4897050;29;20214;-76
2022/04/23 15:23:31;;;;;;;3.33;2.47;;;;;;;;;;4902280;29;20192;-75
2022/04/23 15:25:58;;;;;;;5.90;2.60;;;;;;;;;;4893579;29;20207;-76
2022/04/23 15:28:25;;;;;;;6.00;2.70;;;;;;;;;;4903864;29;20218;-75
2022/04/23 15:30:52;;;;;;;4.90;2.93;;;;;;;;;;4904892;29;20298;-75
2022/04/23 15:33:20;;;;;;;3.60;2.43;;;;;;;;;;4901576;29;20196;-75
2022/04/23 15:35:54;;;;;;;11.90;3.30;;;;;;;;;;4906726;29;20219;-75
2022/04/23 15:38:23;;;;;;;7.13;4.07;;;;;;;;;;4891686;29;20195;-75
2022/04/23 15:43:46;;;;;;;6.20;2.87;;;;;;;;;;4898346;29;20282;-75
2022/04/23 15:46:13;;;;;;;4.20;2.53;;;;;;;;;;4904747;29;20290;-74
2022/04/23 15:48:40;;;;;;;4.63;2.30;;;;;;;;;;4903952;29;20226;-73
2022/04/23 15:51:07;;;;;;;7.17;2.30;;;;;;;;;;4904916;29;20199;-72
2022/04/23 15:53:34;;;;;;;3.63;2.03;;;;;;;;;;4905461;29;20203;-73
2022/04/23 15:56:01;;;;;;;4.97;2.10;;;;;;;;;;4907445;29;20592;-72
2022/04/23 15:58:28;;;;;;;3.77;2.30;;;;;;;;;;4905642;29;20627;-73
2022/04/23 16:00:57;;;;;;;3.57;1.90;;;;;;;;;;4907036;29;20203;-74
2022/04/23 16:03:24;;;;;;;4.53;2.10;;;;;;;;;;4920300;29;20257;-74